Time;durP1;ratioP1;P1;durP2;ratioP2;P2;SDS_P1;SDS_P2;PMS_P1;PMS_P2;Temp;Humidity;BMP_temperature;BMP_pressure;BME280_temperature;BME280_humidity;BME280_pressure;Samples;Min_cycle;Max_cycle;Signal;HPM_P1;HPM_P2
2023/01/05 00:02:21;;;;;;;5.57;2.53;;;;;;;21.41;42.57;101168.63;5042945;28;20106;-77
2023/01/05 00:04:50;;;;;;;6.07;2.47;;;;;;;21.46;42.68;101179.50;5036447;28;20103;-78
2023/01/05 00:07:15;;;;;;;5.95;2.53;;;;;;;21.44;42.70;101172.72;5029796;28;20095;-77
2023/01/05 00:09:41;;;;;;;4.95;1.98;;;;;;;21.39;43.04;101178.59;5038142;28;20095;-78
2023/01/05 00:23:06;;;;;;;6.35;2.25;;;;;;;21.42;42.66;101173.75;5035149;28;20086;-77
2023/01/05 00:25:35;;;;;;;7.47;2.45;;;;;;;21.43;42.71;101179.84;5028982;28;20574;-77
2023/01/05 00:28:01;;;;;;;5.38;2.30;;;;;;;21.38;42.47;101179.59;5035896;28;20033;-77
2023/01/05 00:30:31;;;;;;;8.30;2.70;;;;;;;21.37;42.78;101183.25;5027660;28;20116;-78
2023/01/05 00:32:57;;;;;;;5.72;2.30;;;;;;;21.40;42.64;101182.88;5035043;28;20120;-77
2023/01/05 00:35:23;;;;;;;5.50;2.05;;;;;;;21.31;42.69;101183.94;5029727;28;20037;-77
2023/01/05 00:37:50;;;;;;;5.32;2.38;;;;;;;21.33;42.58;101192.53;5030071;28;20041;-77
2023/01/05 00:40:18;;;;;;;3.72;2.25;;;;;;;21.29;42.67;101175.34;5034688;28;20056;-76
2023/01/05 00:42:45;;;;;;;5.80;2.30;;;;;;;21.23;42.69;101174.22;5032895;28;20037;-77
2023/01/05 00:45:13;;;;;;;3.53;2.00;;;;;;;21.26;42.70;101188.97;5030022;28;20033;-77
2023/01/05 00:47:38;;;;;;;5.80;2.33;;;;;;;21.21;42.89;101188.66;5031580;28;20395;-77
2023/01/05 00:50:05;;;;;;;5.93;2.25;;;;;;;21.28;42.96;101194.91;5040028;28;20028;-77
2023/01/05 00:52:31;;;;;;;5.95;2.78;;;;;;;21.36;42.61;101195.66;5032001;28;20063;-76
2023/01/05 00:54:59;;;;;;;5.97;2.30;;;;;;;21.28;42.80;101193.06;5041805;28;20048;-76
2023/01/05 00:57:24;;;;;;;6.25;2.17;;;;;;;21.26;42.52;101191.63;5035437;28;20625;-76
2023/01/05 00:59:51;;;;;;;8.70;2.58;;;;;;;21.31;42.65;101189.25;5038660;28;20043;-76
2023/01/05 01:02:18;;;;;;;5.60;1.90;;;;;;;21.18;42.71;101194.28;5034835;28;20048;-76
2023/01/05 01:04:45;;;;;;;6.53;2.28;;;;;;;21.19;42.72;101211.88;5038302;28;20044;-76
2023/01/05 01:07:10;;;;;;;3.30;1.58;;;;;;;21.16;42.89;101204.25;5038598;28;20067;-76
2023/01/05 01:09:36;;;;;;;4.32;1.95;;;;;;;21.24;42.55;101194.44;5038497;28;20045;-76
2023/01/05 01:12:02;;;;;;;5.00;2.35;;;;;;;21.17;42.83;101187.34;5037820;28;20033;-77
2023/01/05 01:14:27;;;;;;;6.38;2.55;;;;;;;21.18;42.93;101199.59;5037714;28;20037;-77
2023/01/05 01:16:53;;;;;;;5.80;2.17;;;;;;;21.15;43.05;101205.25;5045225;28;20094;-77
2023/01/05 01:19:21;;;;;;;6.10;2.17;;;;;;;20.97;42.98;101181.75;5031478;28;20037;-76
2023/01/05 01:21:47;;;;;;;6.65;2.33;;;;;;;21.15;42.84;101199.97;5036284;28;20040;-76
2023/01/05 01:24:19;;;;;;;6.60;2.58;;;;;;;21.11;42.70;101210.09;5040343;28;20033;-76
2023/01/05 01:26:45;;;;;;;2.83;1.92;;;;;;;21.08;42.88;101208.63;5034652;28;20493;-76
2023/01/05 01:29:11;;;;;;;6.22;2.38;;;;;;;21.10;42.99;101211.09;5036371;28;20392;-76
2023/01/05 01:31:37;;;;;;;4.05;2.00;;;;;;;21.09;43.02;101214.75;5034115;28;20040;-76
2023/01/05 01:34:04;;;;;;;7.07;2.40;;;;;;;21.07;43.08;101214.09;5030263;28;20029;-76
2023/01/05 01:36:30;;;;;;;3.63;1.85;;;;;;;21.04;42.75;101203.88;5035650;28;20034;-76
2023/01/05 01:38:55;;;;;;;3.95;1.80;;;;;;;21.04;42.80;101225.88;5024242;28;20094;-76
2023/01/05 01:41:21;;;;;;;5.22;2.40;;;;;;;21.00;43.06;101221.91;5031443;28;20037;-77
2023/01/05 01:43:53;;;;;;;4.55;1.80;;;;;;;21.01;42.83;101231.53;5034979;28;20037;-77
2023/01/05 01:46:22;;;;;;;6.07;2.35;;;;;;;20.92;42.96;101232.59;5029607;28;20525;-77
2023/01/05 01:48:52;;;;;;;6.80;2.30;;;;;;;21.06;42.72;101242.41;5037968;28;20045;-76
2023/01/05 01:51:26;;;;;;;3.35;2.13;;;;;;;21.01;42.83;101244.78;5033532;28;20041;-77
2023/01/05 01:53:56;;;;;;;6.32;1.95;;;;;;;21.02;42.97;101241.13;5054678;28;20087;-76
2023/01/05 01:56:25;;;;;;;4.25;1.80;;;;;;;21.02;42.91;101250.88;5036748;28;20086;-77
2023/01/05 01:58:51;;;;;;;5.03;2.00;;;;;;;20.92;42.94;101240.53;5020061;28;20048;-77
2023/01/05 02:01:18;;;;;;;4.47;1.88;;;;;;;20.98;42.88;101257.50;5035514;28;20037;-76
2023/01/05 02:03:44;;;;;;;4.28;1.70;;;;;;;20.94;43.02;101254.41;5027797;28;20082;-76
2023/01/05 02:06:10;;;;;;;6.50;1.98;;;;;;;20.95;43.00;101257.88;5037561;28;20040;-76
2023/01/05 02:08:36;;;;;;;4.72;2.20;;;;;;;20.99;43.01;101254.69;5030955;28;20037;-76
2023/01/05 02:11:23;;;;;;;5.38;2.05;;;;;;;21.01;42.85;101263.31;5032982;28;20052;-76
2023/01/05 02:14:01;;;;;;;4.35;1.90;;;;;;;20.88;43.17;101270.19;5030876;28;20447;-77
2023/01/05 02:16:36;;;;;;;5.80;2.00;;;;;;;20.98;42.85;101273.41;5034544;28;20069;-76
2023/01/05 02:19:20;;;;;;;3.70;2.05;;;;;;;20.94;43.02;101270.28;5028156;28;20052;-76
2023/01/05 02:21:58;;;;;;;5.30;2.00;;;;;;;20.96;42.94;101272.75;5038570;28;20041;-76
2023/01/05 02:24:50;;;;;;;5.43;2.13;;;;;;;20.91;43.02;101267.19;5033080;28;20044;-76
2023/01/05 02:27:31;;;;;;;6.00;2.20;;;;;;;20.95;42.72;101274.59;5005892;28;20044;-76
2023/01/05 02:30:34;;;;;;;5.90;1.80;;;;;;;20.93;42.81;101284.53;5033409;28;20040;-76
2023/01/05 02:33:19;;;;;;;4.55;2.35;;;;;;;20.94;42.74;101272.13;5045063;28;20033;-77
2023/01/05 02:35:53;;;;;;;4.13;2.08;;;;;;;20.99;42.61;101272.41;5036491;28;21200;-76
2023/01/05 02:38:45;;;;;;;6.78;2.10;;;;;;;20.89;43.13;101274.47;5033836;28;20116;-76
2023/01/05 02:41:22;;;;;;;5.47;2.00;;;;;;;20.84;43.03;101282.13;5045204;28;20769;-76
2023/01/05 02:43:48;;;;;;;4.78;2.15;;;;;;;20.91;43.00;101280.41;5034629;28;20058;-76
2023/01/05 02:46:14;;;;;;;5.45;2.10;;;;;;;20.79;43.07;101279.97;5038305;28;20043;-76
2023/01/05 02:48:41;;;;;;;4.43;2.00;;;;;;;20.84;43.17;101271.53;5038799;28;20036;-76
2023/01/05 02:51:17;;;;;;;4.90;2.25;;;;;;;20.87;42.97;101279.94;5033149;28;20462;-76
2023/01/05 02:53:48;;;;;;;7.65;2.28;;;;;;;20.90;42.79;101279.59;5038092;28;20082;-76
2023/01/05 02:56:41;;;;;;;5.82;2.45;;;;;;;20.83;43.02;101277.84;5034307;28;20086;-76
2023/01/05 02:59:15;;;;;;;7.35;2.40;;;;;;;20.88;42.85;101283.41;5045490;28;20102;-75
2023/01/05 03:01:47;;;;;;;6.20;1.88;;;;;;;20.81;42.79;101276.16;5031906;28;21216;-76
2023/01/05 03:04:25;;;;;;;4.20;2.08;;;;;;;20.80;43.09;101282.44;5033033;28;20037;-76
2023/01/05 03:06:58;;;;;;;5.28;1.80;;;;;;;20.81;43.01;101294.69;5031925;28;20631;-76
2023/01/05 03:09:35;;;;;;;7.53;2.80;;;;;;;20.75;43.06;101289.28;5033722;28;20028;-76
2023/01/05 03:15:30;;;;;;;6.13;2.15;;;;;;;20.76;42.92;101298.88;5043159;28;20468;-76
2023/01/05 03:18:03;;;;;;;4.40;1.80;;;;;;;20.72;43.15;101298.38;5036632;28;20099;-77
2023/01/05 03:20:32;;;;;;;5.38;1.90;;;;;;;20.80;42.79;101300.16;5034702;28;20402;-76
2023/01/05 03:37:33;;;;;;;4.75;2.03;;;;;;;20.83;42.89;101307.78;5022636;28;20628;-75
2023/01/05 03:40:01;;;;;;;5.03;1.83;;;;;;;20.74;42.93;101309.63;5041503;28;20522;-75
2023/01/05 03:42:36;;;;;;;4.75;2.15;;;;;;;20.78;42.88;101326.81;5043462;28;20467;-75
2023/01/05 03:45:02;;;;;;;4.88;1.80;;;;;;;20.75;43.13;101311.28;5034053;28;20691;-75
2023/01/05 03:47:27;;;;;;;6.22;2.53;;;;;;;20.77;42.95;101303.97;5036596;28;20044;-75
2023/01/05 03:49:53;;;;;;;3.88;2.13;;;;;;;20.68;43.19;101318.28;5044664;28;20045;-75
2023/01/05 03:52:19;;;;;;;4.50;1.58;;;;;;;20.84;42.93;101322.66;5031963;28;20804;-75
2023/01/05 03:54:44;;;;;;;5.65;2.25;;;;;;;20.81;42.66;101330.91;5040385;28;20044;-75
2023/01/05 03:57:10;;;;;;;4.40;2.00;;;;;;;20.89;42.60;101325.59;5035223;28;20037;-75
2023/01/05 03:59:37;;;;;;;6.55;2.00;;;;;;;20.88;42.86;101336.34;5041085;28;20045;-75
2023/01/05 04:02:03;;;;;;;6.95;2.00;;;;;;;20.77;42.88;101326.97;5043243;28;20041;-76
2023/01/05 04:04:30;;;;;;;5.00;1.92;;;;;;;20.77;42.96;101337.56;5036333;28;20493;-75
2023/01/05 04:06:58;;;;;;;6.00;1.98;;;;;;;20.80;42.92;101331.91;5039662;28;20040;-75
2023/01/05 04:09:24;;;;;;;4.03;1.80;;;;;;;20.76;42.80;101335.91;5039790;28;20043;-75
2023/01/05 04:11:49;;;;;;;5.00;1.95;;;;;;;20.83;42.97;101346.66;5031341;28;20037;-76
2023/01/05 04:14:15;;;;;;;6.00;2.22;;;;;;;20.77;42.90;101348.16;5036438;28;20036;-75
2023/01/05 04:16:41;;;;;;;6.72;2.70;;;;;;;20.73;43.04;101341.56;5042247;28;20075;-75
2023/01/05 04:19:17;;;;;;;3.63;1.80;;;;;;;20.80;42.67;101353.09;5046377;28;20063;-75
2023/01/05 04:21:44;;;;;;;7.18;2.50;;;;;;;20.79;42.92;101346.97;5030777;28;20030;-75
2023/01/05 04:24:10;;;;;;;5.05;1.90;;;;;;;20.79;42.84;101349.63;5040131;28;20548;-75
2023/01/05 04:26:40;;;;;;;4.80;1.83;;;;;;;20.77;42.91;101343.69;5036793;28;20141;-76
2023/01/05 04:29:06;;;;;;;3.50;1.65;;;;;;;20.71;42.93;101354.16;5039376;28;20048;-76
2023/01/05 04:31:32;;;;;;;6.78;2.17;;;;;;;20.79;42.80;101348.78;5038207;28;20041;-76
2023/01/05 04:33:59;;;;;;;5.60;2.13;;;;;;;20.75;42.80;101350.97;5032105;28;20460;-75
2023/01/05 04:36:25;;;;;;;5.47;1.90;;;;;;;20.83;42.69;101354.59;5038490;28;20448;-75
2023/01/05 04:38:54;;;;;;;3.95;2.05;;;;;;;20.72;43.11;101361.09;5037759;28;20132;-75
2023/01/05 04:41:20;;;;;;;4.30;1.73;;;;;;;20.72;42.91;101361.91;5032241;28;20028;-75
2023/01/05 04:43:48;;;;;;;7.22;2.55;;;;;;;20.71;42.98;101362.09;5039338;28;20040;-75
2023/01/05 04:46:14;;;;;;;4.28;1.88;;;;;;;20.71;42.93;101378.78;5034986;28;20052;-76
2023/01/05 04:48:42;;;;;;;5.65;1.95;;;;;;;20.80;42.90;101379.56;5030291;28;20068;-75
2023/01/05 04:51:08;;;;;;;6.13;2.47;;;;;;;20.77;42.85;101386.03;5032508;28;20045;-76
2023/01/05 04:53:36;;;;;;;5.35;2.03;;;;;;;20.71;43.02;101378.78;5037908;28;20067;-76
2023/01/05 04:56:03;;;;;;;5.55;2.50;;;;;;;20.76;42.76;101378.25;5032177;28;20040;-76
2023/01/05 04:58:34;;;;;;;7.28;2.40;;;;;;;20.75;42.93;101384.56;5030776;28;20033;-75
2023/01/05 05:01:00;;;;;;;3.67;1.67;;;;;;;20.77;42.82;101379.91;5031049;28;20567;-76
2023/01/05 05:03:29;;;;;;;4.63;2.00;;;;;;;20.67;43.04;101377.50;5039159;28;20040;-76
2023/01/05 05:05:57;;;;;;;3.88;1.90;;;;;;;20.76;42.79;101379.09;5034990;28;20883;-75
2023/01/05 05:08:24;;;;;;;5.80;2.05;;;;;;;20.73;42.96;101381.25;5036059;28;20043;-75
2023/01/05 05:10:50;;;;;;;5.47;1.98;;;;;;;20.69;43.04;101387.91;5032437;28;20516;-75
2023/01/05 05:13:18;;;;;;;5.15;1.90;;;;;;;20.74;42.85;101393.50;5035913;28;20041;-75
2023/01/05 05:15:45;;;;;;;5.43;2.20;;;;;;;20.74;42.98;101391.66;5030750;28;20048;-75
2023/01/05 05:18:11;;;;;;;4.90;2.40;;;;;;;20.74;42.95;101396.13;5035317;28;20451;-75
2023/01/05 05:20:42;;;;;;;6.63;2.20;;;;;;;20.70;42.97;101392.19;5034834;28;20055;-75
2023/01/05 05:23:09;;;;;;;5.53;2.25;;;;;;;20.64;42.93;101396.31;5032920;28;20047;-75
2023/01/05 05:25:35;;;;;;;5.82;2.33;;;;;;;20.67;43.10;101408.41;5033473;28;20029;-76
2023/01/05 05:28:00;;;;;;;8.13;2.25;;;;;;;20.68;42.90;101405.59;5036329;28;20392;-75
2023/01/05 05:30:26;;;;;;;5.13;2.60;;;;;;;20.74;43.02;101419.97;5034606;28;20051;-75
2023/01/05 05:32:51;;;;;;;6.80;2.67;;;;;;;20.68;42.88;101408.25;5039340;28;20040;-76
2023/01/05 05:35:17;;;;;;;4.70;1.77;;;;;;;20.66;42.93;101417.34;5031311;28;20048;-76
2023/01/05 05:37:42;;;;;;;3.83;1.90;;;;;;;20.63;42.93;101423.78;5034417;28;20045;-76
2023/01/05 05:40:09;;;;;;;4.32;1.98;;;;;;;20.66;42.90;101427.94;5038592;28;20118;-76
2023/01/05 05:42:34;;;;;;;6.07;2.25;;;;;;;20.69;42.86;101425.78;5036181;28;20032;-75
2023/01/05 05:45:00;;;;;;;4.68;2.20;;;;;;;20.65;42.96;101436.88;5038657;28;20534;-75
2023/01/05 05:47:25;;;;;;;4.72;2.40;;;;;;;20.66;43.18;101436.72;5032180;28;20120;-75
2023/01/05 05:49:51;;;;;;;4.32;2.30;;;;;;;20.65;42.97;101440.34;5037081;28;20048;-76
2023/01/05 05:52:16;;;;;;;4.00;1.85;;;;;;;20.58;43.09;101441.19;5035542;28;20037;-76
2023/01/05 05:54:42;;;;;;;5.82;2.10;;;;;;;20.65;42.93;101440.34;5035771;28;20029;-75
2023/01/05 05:57:07;;;;;;;6.07;2.15;;;;;;;20.63;42.85;101452.06;5036263;28;20048;-75
2023/01/05 05:59:33;;;;;;;5.45;1.80;;;;;;;20.61;42.98;101448.78;5039567;28;20032;-75
2023/01/05 06:01:58;;;;;;;6.22;2.10;;;;;;;20.64;42.96;101453.72;5035152;28;20518;-75
2023/01/05 06:04:24;;;;;;;6.57;2.38;;;;;;;20.58;43.19;101460.53;5036253;28;20033;-75
2023/01/05 06:06:49;;;;;;;5.00;2.47;;;;;;;20.61;43.01;101475.22;5037315;28;20689;-75
2023/01/05 06:09:15;;;;;;;5.38;2.15;;;;;;;20.61;43.07;101475.22;5036863;28;20499;-76
2023/01/05 06:11:40;;;;;;;5.07;1.85;;;;;;;20.50;43.14;101466.69;5029247;28;20036;-75
2023/01/05 06:14:06;;;;;;;5.20;2.10;;;;;;;20.51;43.19;101478.91;5034646;28;20538;-76
2023/01/05 06:16:32;;;;;;;3.80;1.85;;;;;;;20.58;43.08;101489.63;5033870;28;20053;-76
2023/01/05 06:18:57;;;;;;;5.00;1.90;;;;;;;20.61;43.02;101488.47;5026982;28;20061;-76
2023/01/05 06:21:23;;;;;;;4.40;2.10;;;;;;;20.57;42.89;101493.28;5033952;28;20044;-75
2023/01/05 06:23:48;;;;;;;5.45;2.08;;;;;;;20.67;42.74;101495.75;5034961;28;20084;-75
2023/01/05 06:26:14;;;;;;;7.50;2.38;;;;;;;20.58;43.00;101502.88;5030731;28;20143;-75
2023/01/05 06:28:39;;;;;;;5.90;1.83;;;;;;;20.54;42.98;101500.72;5028408;28;20052;-76
2023/01/05 06:31:05;;;;;;;5.07;1.85;;;;;;;20.50;43.04;101500.25;5027632;28;20029;-75
2023/01/05 06:33:31;;;;;;;4.45;2.17;;;;;;;20.53;43.03;101505.19;5034046;28;20090;-75
2023/01/05 06:35:57;;;;;;;7.57;2.53;;;;;;;20.52;43.01;101507.00;5035342;28;20041;-75
2023/01/05 06:38:24;;;;;;;8.15;2.78;;;;;;;20.56;42.82;101510.16;5035764;28;20049;-75
2023/01/05 06:40:50;;;;;;;6.13;2.22;;;;;;;20.63;42.85;101512.94;5042200;28;20059;-75
2023/01/05 06:43:16;;;;;;;5.00;2.10;;;;;;;20.58;42.96;101520.56;5043320;28;20468;-76
2023/01/05 06:45:41;;;;;;;5.95;2.30;;;;;;;20.58;43.00;101528.50;5036701;28;20044;-76
2023/01/05 06:48:07;;;;;;;9.52;2.58;;;;;;;20.60;43.01;101523.84;5037021;28;20990;-76
2023/01/05 06:50:33;;;;;;;6.60;2.28;;;;;;;20.58;43.04;101521.38;5037962;28;20071;-76
2023/01/05 06:52:59;;;;;;;6.75;2.00;;;;;;;20.48;43.07;101515.47;5031094;28;20037;-75
2023/01/05 06:55:24;;;;;;;5.25;2.40;;;;;;;20.57;42.83;101524.19;5035257;28;20048;-75
2023/01/05 06:57:50;;;;;;;4.38;2.00;;;;;;;20.56;42.99;101533.97;5037891;28;20057;-75
2023/01/05 07:00:16;;;;;;;5.30;2.15;;;;;;;20.64;42.90;101530.47;5034428;28;20045;-75
2023/01/05 07:02:41;;;;;;;8.45;2.33;;;;;;;20.64;42.92;101536.59;5038461;28;20037;-75
2023/01/05 07:05:07;;;;;;;3.53;1.70;;;;;;;20.61;42.89;101531.63;5034515;28;20037;-75
2023/01/05 07:07:33;;;;;;;3.35;2.00;;;;;;;20.66;42.90;101536.44;5040545;28;20059;-75
2023/01/05 07:09:58;;;;;;;4.43;2.10;;;;;;;20.62;42.76;101543.88;5031147;28;20507;-76
2023/01/05 07:12:24;;;;;;;9.02;2.25;;;;;;;20.63;42.72;101550.81;5043958;28;20423;-76
2023/01/05 07:14:49;;;;;;;5.90;2.30;;;;;;;20.62;42.85;101548.34;5037326;28;20061;-76
2023/01/05 07:17:15;;;;;;;8.05;1.80;;;;;;;20.63;43.00;101545.50;5033437;28;20072;-75
2023/01/05 07:19:41;;;;;;;5.30;2.08;;;;;;;20.59;42.92;101551.31;5032423;28;20071;-76
2023/01/05 07:22:06;;;;;;;4.05;1.88;;;;;;;20.63;42.84;101557.91;5034877;28;20388;-76
2023/01/05 07:24:32;;;;;;;5.82;2.35;;;;;;;20.59;42.85;101554.78;5034924;28;20598;-76
2023/01/05 07:26:58;;;;;;;5.22;2.08;;;;;;;20.58;43.12;101554.97;5036782;28;20036;-76
2023/01/05 07:29:24;;;;;;;6.45;1.98;;;;;;;20.60;43.04;101566.19;5043661;28;20033;-76
2023/01/05 07:31:53;;;;;;;5.57;2.00;;;;;;;20.64;43.10;101559.56;5036570;28;20478;-76
2023/01/05 07:34:22;;;;;;;4.10;1.63;;;;;;;20.60;43.05;101571.50;5039440;28;20822;-76
2023/01/05 07:36:48;;;;;;;5.10;1.90;;;;;;;20.65;42.98;101572.66;5037285;28;20042;-76
2023/01/05 07:39:14;;;;;;;3.45;1.42;;;;;;;20.65;43.04;101563.91;5036475;28;20060;-76
2023/01/05 07:41:40;;;;;;;3.78;1.67;;;;;;;20.64;42.91;101572.81;5034395;28;20048;-76
2023/01/05 07:44:06;;;;;;;6.25;2.05;;;;;;;20.66;42.97;101568.19;5042149;28;20101;-76
2023/01/05 07:46:32;;;;;;;4.43;1.85;;;;;;;20.67;42.97;101573.31;5034181;28;20026;-76
2023/01/05 07:48:57;;;;;;;5.50;1.98;;;;;;;20.61;43.07;101568.69;5035506;28;20112;-76
2023/01/05 07:51:23;;;;;;;4.25;1.67;;;;;;;20.62;42.99;101586.19;5039891;28;20033;-76
2023/01/05 07:53:49;;;;;;;4.15;2.05;;;;;;;20.63;43.02;101585.22;5034848;28;20043;-76
2023/01/05 07:56:14;;;;;;;4.85;2.25;;;;;;;20.63;43.13;101585.22;5031271;28;20419;-76
2023/01/05 07:58:40;;;;;;;3.75;2.05;;;;;;;20.72;43.22;101599.28;5037979;28;20052;-76
2023/01/05 08:01:08;;;;;;;3.40;1.90;;;;;;;20.64;43.29;101599.28;5038379;28;20037;-77
2023/01/05 08:03:34;;;;;;;4.70;1.98;;;;;;;20.65;43.55;101616.84;5036829;28;20048;-77
2023/01/05 08:06:04;;;;;;;6.05;2.13;;;;;;;20.71;43.01;101626.75;5044331;28;20066;-77
2023/01/05 08:08:29;;;;;;;4.45;1.85;;;;;;;20.64;43.21;101626.56;5036522;28;20159;-77
2023/01/05 08:10:55;;;;;;;4.63;2.20;;;;;;;20.68;43.17;101630.56;5035943;28;20507;-77
2023/01/05 08:16:05;;;;;;;6.35;2.33;;;;;;;20.66;43.14;101637.84;5030253;28;20083;-77
2023/01/05 08:18:30;;;;;;;6.55;2.60;;;;;;;20.69;43.00;101648.09;5044511;28;20787;-77
2023/01/05 08:20:58;;;;;;;5.82;2.22;;;;;;;20.68;42.98;101643.78;5042834;28;20040;-77
2023/01/05 08:23:27;;;;;;;6.03;2.40;;;;;;;20.67;42.94;101643.94;5032968;28;20123;-77
2023/01/05 08:25:54;;;;;;;5.32;1.92;;;;;;;20.67;43.19;101646.59;5033449;28;20083;-77
2023/01/05 08:28:19;;;;;;;7.95;1.95;;;;;;;20.61;43.10;101656.00;5040360;28;20043;-77
2023/01/05 08:30:45;;;;;;;5.57;2.10;;;;;;;20.62;43.02;101648.88;5033127;28;20044;-77
2023/01/05 08:33:10;;;;;;;5.93;1.98;;;;;;;20.70;42.85;101660.31;5049210;28;20036;-77
2023/01/05 08:35:40;;;;;;;6.38;2.50;;;;;;;20.58;43.26;101666.91;5038662;28;20148;-77
2023/01/05 08:38:05;;;;;;;6.80;2.20;;;;;;;20.67;42.98;101673.88;5039114;28;20040;-78
2023/01/05 08:40:31;;;;;;;6.43;1.90;;;;;;;20.65;42.97;101670.59;5035401;28;20069;-78
2023/01/05 08:42:56;;;;;;;5.13;2.00;;;;;;;20.60;42.99;101672.88;5039508;28;20044;-78
2023/01/05 08:45:25;;;;;;;7.40;1.98;;;;;;;20.63;43.05;101674.34;5031364;28;20037;-78
2023/01/05 08:47:51;;;;;;;5.60;2.03;;;;;;;20.64;43.30;101684.78;5031582;28;20463;-77
2023/01/05 08:50:16;;;;;;;6.13;2.00;;;;;;;20.54;43.22;101678.00;5040740;28;20040;-77
2023/01/05 08:52:42;;;;;;;7.05;2.25;;;;;;;20.58;43.04;101684.63;5048324;28;20049;-77
2023/01/05 08:55:07;;;;;;;8.32;2.40;;;;;;;20.66;42.84;101695.22;5043190;28;20044;-77
2023/01/05 08:57:33;;;;;;;6.25;2.40;;;;;;;20.76;42.59;101693.22;5038008;28;20530;-77
2023/01/05 08:59:59;;;;;;;8.27;2.15;;;;;;;20.64;43.01;101702.47;5032859;28;20545;-76
2023/01/05 09:02:25;;;;;;;6.20;2.05;;;;;;;20.62;43.13;101709.75;5038845;28;20049;-77
2023/01/05 09:04:51;;;;;;;6.70;1.92;;;;;;;20.64;43.14;101705.13;5033900;28;20071;-76
2023/01/05 09:07:17;;;;;;;8.48;2.40;;;;;;;20.61;42.84;101711.56;5037697;28;20041;-77
2023/01/05 09:09:42;;;;;;;4.50;2.13;;;;;;;20.61;43.10;101716.88;5036310;28;20151;-77
2023/01/05 09:12:08;;;;;;;7.70;2.60;;;;;;;20.65;42.82;101722.69;5026751;28;20184;-76
2023/01/05 09:14:33;;;;;;;5.00;2.10;;;;;;;20.62;43.03;101730.94;5039283;28;20053;-77
2023/01/05 09:16:59;;;;;;;8.55;2.50;;;;;;;20.62;42.98;101739.69;5036738;28;20048;-77
2023/01/05 09:19:25;;;;;;;6.20;2.38;;;;;;;20.58;42.97;101738.38;5032650;28;20057;-77
2023/01/05 09:21:51;;;;;;;6.47;1.88;;;;;;;20.62;43.01;101744.97;5034022;28;20071;-77
2023/01/05 09:24:17;;;;;;;4.35;2.17;;;;;;;20.68;42.79;101735.59;5040503;28;20715;-77
2023/01/05 09:26:43;;;;;;;6.32;2.42;;;;;;;20.64;43.09;101745.66;5029303;28;20034;-77
2023/01/05 09:29:10;;;;;;;6.72;2.42;;;;;;;20.62;42.78;101754.75;5036353;28;20423;-77
2023/01/05 09:31:35;;;;;;;4.97;2.25;;;;;;;20.60;42.95;101757.56;5033858;28;20480;-77
2023/01/05 09:34:01;;;;;;;7.25;2.35;;;;;;;20.60;42.98;101762.84;5033824;28;20040;-77
2023/01/05 09:36:26;;;;;;;6.22;2.20;;;;;;;20.60;42.93;101767.31;5033116;28;20478;-76
2023/01/05 09:38:55;;;;;;;6.78;2.75;;;;;;;20.62;42.91;101770.63;5026895;28;20041;-77
2023/01/05 09:41:26;;;;;;;3.35;2.15;;;;;;;21.22;41.93;101773.03;4975335;28;20101;-67
2023/01/05 09:43:56;;;;;;;5.38;1.70;;;;;;;21.59;41.19;101776.00;4975019;28;20065;-67
2023/01/05 09:46:38;;;;;;;8.75;2.75;;;;;;;21.83;40.82;101795.50;5036301;28;20037;-66
2023/01/05 09:49:10;;;;;;;6.93;2.22;;;;;;;21.90;40.69;101792.00;5028644;28;20103;-66
2023/01/05 09:51:36;;;;;;;4.53;1.77;;;;;;;22.01;40.44;101806.72;5036044;28;20034;-66
2023/01/05 09:54:02;;;;;;;5.43;1.75;;;;;;;21.99;40.31;101790.97;5013531;28;20056;-65
2023/01/05 09:56:27;;;;;;;6.03;2.10;;;;;;;22.18;40.47;101804.84;4998601;28;20044;-65
2023/01/05 09:59:24;;;;;;;5.85;2.05;;;;;;;22.18;40.37;101799.56;5018470;28;20051;-64
2023/01/05 10:01:51;;;;;;;4.28;1.95;;;;;;;22.24;40.31;101797.03;5027466;28;20538;-66
2023/01/05 10:04:22;;;;;;;6.03;2.10;;;;;;;22.31;40.32;101800.66;5029228;28;20136;-66
2023/01/05 10:07:05;;;;;;;4.78;1.85;;;;;;;22.36;40.38;101796.66;5035190;28;20045;-67
2023/01/05 10:09:37;;;;;;;6.32;2.50;;;;;;;22.42;40.32;101796.78;5029809;28;20033;-68
2023/01/05 10:14:56;;;;;;;;;;;;;;;22.51;40.29;101808.19;4972999;28;20047;-66
2023/01/05 10:17:22;;;;;;;5.90;2.28;;;;;;;22.50;39.99;101799.41;5022509;28;20279;-71
2023/01/05 10:19:52;;;;;;;5.30;2.00;;;;;;;22.56;40.32;101803.19;5037254;28;20078;-73
2023/01/05 10:22:36;;;;;;;6.78;2.00;;;;;;;22.60;40.15;101804.50;5032459;28;20063;-71
2023/01/05 10:25:11;;;;;;;3.40;1.73;;;;;;;22.61;40.00;101812.28;5032900;28;20060;-72
2023/01/05 10:27:48;;;;;;;4.22;1.83;;;;;;;22.65;40.01;101815.44;5033659;28;20048;-72
2023/01/05 10:30:20;;;;;;;4.93;1.80;;;;;;;22.68;40.27;101817.72;5010915;28;20048;-70
2023/01/05 10:33:02;;;;;;;4.70;1.90;;;;;;;22.70;39.79;101818.38;5001167;28;20044;-68
2023/01/05 10:35:40;;;;;;;7.32;2.42;;;;;;;22.74;39.94;101829.47;5034866;28;20102;-66
2023/01/05 10:38:20;;;;;;;5.13;2.15;;;;;;;22.77;39.92;101837.91;5043047;28;20040;-66
2023/01/05 10:41:06;;;;;;;4.57;2.63;;;;;;;22.64;40.08;101827.06;5029627;28;20064;-64
2023/01/05 10:43:41;;;;;;;4.45;2.17;;;;;;;22.46;40.37;101826.47;5032168;28;20435;-64
2023/01/05 10:46:12;;;;;;;9.40;2.15;;;;;;;22.43;40.68;101832.94;5010065;28;20508;-63
2023/01/05 10:48:38;;;;;;;4.93;2.10;;;;;;;22.39;40.48;101834.28;4983867;28;20041;-66
2023/01/05 10:51:05;;;;;;;5.18;1.92;;;;;;;22.35;40.70;101838.28;5035302;28;20034;-66
2023/01/05 10:53:35;;;;;;;3.30;1.60;;;;;;;22.39;40.25;101839.59;5029400;28;20049;-66
2023/01/05 10:56:11;;;;;;;4.68;2.30;;;;;;;22.36;40.65;101842.59;5033265;28;20040;-67
2023/01/05 10:58:40;;;;;;;6.10;2.03;;;;;;;22.32;40.27;101836.00;5033907;28;20590;-66
2023/01/05 11:01:25;;;;;;;7.53;2.35;;;;;;;22.29;40.41;101834.50;5030141;28;20391;-67
2023/01/05 11:03:54;;;;;;;4.55;2.22;;;;;;;22.30;40.48;101838.81;4976332;28;20414;-66
2023/01/05 11:06:29;;;;;;;5.25;2.30;;;;;;;22.47;40.13;101838.75;5019990;28;20029;-71
2023/01/05 11:09:15;;;;;;;6.32;2.10;;;;;;;22.64;39.54;101836.84;5027562;28;20041;-72
2023/01/05 11:11:41;;;;;;;7.03;2.45;;;;;;;22.70;39.66;101828.19;5024744;28;20121;-71
2023/01/05 11:14:14;;;;;;;6.50;2.25;;;;;;;22.73;39.86;101830.47;5038376;28;20417;-73
2023/01/05 11:16:48;;;;;;;6.13;2.08;;;;;;;22.79;39.65;101838.56;5029443;28;20041;-72
2023/01/05 11:19:17;;;;;;;6.35;2.22;;;;;;;22.73;39.62;101833.13;5016620;28;20132;-76
2023/01/05 11:21:44;;;;;;;5.85;1.90;;;;;;;22.78;39.47;101833.44;4996120;28;20052;-63
2023/01/05 11:24:22;;;;;;;7.55;2.45;;;;;;;22.80;39.73;101831.41;5018837;28;20040;-67
2023/01/05 11:26:50;;;;;;;5.35;2.08;;;;;;;22.81;39.58;101836.59;5033196;28;20144;-66
2023/01/05 11:29:17;;;;;;;6.07;2.53;;;;;;;22.90;39.79;101834.72;5030352;28;20048;-66
2023/01/05 11:31:45;;;;;;;4.90;2.20;;;;;;;22.90;39.84;101843.50;5027311;28;20033;-67
2023/01/05 11:34:27;;;;;;;5.38;1.98;;;;;;;22.91;39.64;101836.38;5030341;28;20049;-66
2023/01/05 11:36:55;;;;;;;6.07;2.28;;;;;;;22.91;39.77;101845.16;5003323;28;20037;-67
2023/01/05 11:39:31;;;;;;;5.70;2.35;;;;;;;22.96;39.58;101847.28;4977430;28;20390;-65
2023/01/05 11:42:09;;;;;;;4.18;2.53;;;;;;;22.94;39.42;101838.66;5020736;28;20107;-64
2023/01/05 11:44:34;;;;;;;4.80;2.33;;;;;;;23.00;39.56;101837.16;5026388;28;20033;-66
2023/01/05 11:47:00;;;;;;;5.07;2.17;;;;;;;23.01;39.41;101842.28;5043978;28;20017;-65
2023/01/05 11:49:26;;;;;;;4.22;2.17;;;;;;;23.00;39.83;101847.78;5026966;28;20033;-66
2023/01/05 11:51:51;;;;;;;6.18;1.92;;;;;;;22.76;40.00;101856.69;5036366;28;20047;-66
2023/01/05 11:54:35;;;;;;;8.38;2.10;;;;;;;22.65;39.96;101852.59;4940817;28;20037;-65
2023/01/05 11:57:18;;;;;;;5.85;2.42;;;;;;;22.64;40.17;101850.94;5037862;28;20149;-66
2023/01/05 11:59:45;;;;;;;5.88;2.55;;;;;;;22.60;39.96;101849.63;5040621;28;20932;-66
2023/01/05 12:02:29;;;;;;;5.88;2.08;;;;;;;22.59;40.00;101851.44;5032364;28;20055;-66
2023/01/05 12:05:16;;;;;;;4.70;2.10;;;;;;;22.55;40.18;101851.97;5035409;28;20037;-66
2023/01/05 12:08:09;;;;;;;6.65;2.30;;;;;;;22.51;40.05;101843.53;5041489;28;20505;-64